sensor_id;sensor_type;location;lat;lon;timestamp;pressure;altitude;pressure_sealevel;temperature;humidity
75403;BME280;63975;47.538;18.972;2022-10-30T00:02:03;99892.94;;;22.43;45.40
75403;BME280;63975;47.538;18.972;2022-10-30T00:05:06;99883.13;;;22.37;45.64
75403;BME280;63975;47.538;18.972;2022-10-30T00:08:09;99874.56;;;22.35;45.29
75403;BME280;63975;47.538;18.972;2022-10-30T00:11:12;99887.47;;;22.44;45.35
75403;BME280;63975;47.538;18.972;2022-10-30T00:14:15;99889.28;;;22.44;45.57
75403;BME280;63975;47.538;18.972;2022-10-30T00:17:17;99882.19;;;22.44;45.59
75403;BME280;63975;47.538;18.972;2022-10-30T00:20:19;99878.09;;;22.42;45.46
75403;BME280;63975;47.538;18.972;2022-10-30T00:23:21;99878.47;;;22.39;45.24
75403;BME280;63975;47.538;18.972;2022-10-30T00:26:24;99880.47;;;22.37;45.65
75403;BME280;63975;47.538;18.972;2022-10-30T00:29:26;99869.28;;;22.35;45.57
75403;BME280;63975;47.538;18.972;2022-10-30T00:32:28;99869.50;;;22.40;45.36
75403;BME280;63975;47.538;18.972;2022-10-30T00:35:31;99853.97;;;22.30;45.60
75403;BME280;63975;47.538;18.972;2022-10-30T00:38:33;99862.56;;;22.32;45.32
75403;BME280;63975;47.538;18.972;2022-10-30T00:41:36;99860.09;;;22.31;45.53
75403;BME280;63975;47.538;18.972;2022-10-30T00:47:51;99860.91;;;22.31;45.40
75403;BME280;63975;47.538;18.972;2022-10-30T00:50:54;99867.25;;;22.37;45.74
75403;BME280;63975;47.538;18.972;2022-10-30T00:54:00;99877.66;;;22.38;45.66
75403;BME280;63975;47.538;18.972;2022-10-30T00:57:05;99862.28;;;22.27;45.63
75403;BME280;63975;47.538;18.972;2022-10-30T01:00:09;99865.38;;;22.31;45.41
75403;BME280;63975;47.538;18.972;2022-10-30T01:03:14;99859.47;;;22.29;45.64
75403;BME280;63975;47.538;18.972;2022-10-30T01:06:16;99858.88;;;22.33;45.48
75403;BME280;63975;47.538;18.972;2022-10-30T01:09:20;99851.75;;;22.34;45.87
75403;BME280;63975;47.538;18.972;2022-10-30T01:12:23;99849.13;;;22.34;45.50
75403;BME280;63975;47.538;18.972;2022-10-30T01:15:40;99848.13;;;22.35;45.42
75403;BME280;63975;47.538;18.972;2022-10-30T01:18:58;99845.66;;;22.33;45.38
75403;BME280;63975;47.538;18.972;2022-10-30T01:25:50;99827.34;;;22.32;45.64
75403;BME280;63975;47.538;18.972;2022-10-30T01:29:16;99809.75;;;22.24;45.83
75403;BME280;63975;47.538;18.972;2022-10-30T01:36:07;99823.88;;;22.31;45.49
75403;BME280;63975;47.538;18.972;2022-10-30T01:39:25;99818.75;;;22.30;45.45
75403;BME280;63975;47.538;18.972;2022-10-30T01:42:50;99833.44;;;22.32;45.71
75403;BME280;63975;47.538;18.972;2022-10-30T01:56:16;99839.50;;;22.26;45.45
75403;BME280;63975;47.538;18.972;2022-10-30T01:59:22;99839.91;;;22.30;45.45
75403;BME280;63975;47.538;18.972;2022-10-30T02:02:27;99839.91;;;22.30;45.86
75403;BME280;63975;47.538;18.972;2022-10-30T02:05:41;99835.00;;;22.27;45.62
75403;BME280;63975;47.538;18.972;2022-10-30T02:08:44;99836.47;;;22.29;45.63
75403;BME280;63975;47.538;18.972;2022-10-30T02:11:47;99834.84;;;22.28;45.46
75403;BME280;63975;47.538;18.972;2022-10-30T02:14:55;99836.88;;;22.26;45.80
75403;BME280;63975;47.538;18.972;2022-10-30T02:18:00;99847.25;;;22.28;45.53
75403;BME280;63975;47.538;18.972;2022-10-30T02:21:04;99844.59;;;22.28;45.57
75403;BME280;63975;47.538;18.972;2022-10-30T02:24:06;99840.31;;;22.27;45.80
75403;BME280;63975;47.538;18.972;2022-10-30T02:27:09;99838.47;;;22.27;45.59
75403;BME280;63975;47.538;18.972;2022-10-30T02:30:14;99808.06;;;22.16;45.70
75403;BME280;63975;47.538;18.972;2022-10-30T02:33:16;99824.44;;;22.27;45.96
75403;BME280;63975;47.538;18.972;2022-10-30T02:36:23;99802.34;;;22.13;45.86
75403;BME280;63975;47.538;18.972;2022-10-30T02:39:27;99821.78;;;22.27;45.70
75403;BME280;63975;47.538;18.972;2022-10-30T02:42:30;99800.34;;;22.15;45.69
75403;BME280;63975;47.538;18.972;2022-10-30T02:45:32;99817.69;;;22.24;45.47
75403;BME280;63975;47.538;18.972;2022-10-30T02:48:34;99834.41;;;22.24;45.71
75403;BME280;63975;47.538;18.972;2022-10-30T02:51:36;99827.66;;;22.22;45.70
75403;BME280;63975;47.538;18.972;2022-10-30T02:54:39;99827.03;;;22.20;45.92
75403;BME280;63975;47.538;18.972;2022-10-30T02:57:42;99821.13;;;22.18;45.90
75403;BME280;63975;47.538;18.972;2022-10-30T03:00:44;99834.41;;;22.24;45.93
75403;BME280;63975;47.538;18.972;2022-10-30T03:03:46;99823.00;;;22.24;45.49
75403;BME280;63975;47.538;18.972;2022-10-30T03:06:49;99830.94;;;22.24;45.92
75403;BME280;63975;47.538;18.972;2022-10-30T03:09:51;99819.47;;;22.17;45.59
75403;BME280;63975;47.538;18.972;2022-10-30T03:12:55;99823.50;;;22.13;45.92
75403;BME280;63975;47.538;18.972;2022-10-30T03:16:01;99831.13;;;22.22;45.84
75403;BME280;63975;47.538;18.972;2022-10-30T03:19:05;99834.97;;;22.20;45.81
75403;BME280;63975;47.538;18.972;2022-10-30T03:22:08;99829.06;;;22.18;45.70
75403;BME280;63975;47.538;18.972;2022-10-30T03:25:12;99828.66;;;22.21;45.62
75403;BME280;63975;47.538;18.972;2022-10-30T03:28:14;99812.13;;;22.12;46.04
75403;BME280;63975;47.538;18.972;2022-10-30T03:31:17;99819.47;;;22.17;45.53
75403;BME280;63975;47.538;18.972;2022-10-30T03:34:23;99833.97;;;22.21;46.00
75403;BME280;63975;47.538;18.972;2022-10-30T03:37:25;99817.41;;;22.12;45.95
75403;BME280;63975;47.538;18.972;2022-10-30T03:40:27;99814.13;;;22.10;45.78
75403;BME280;63975;47.538;18.972;2022-10-30T03:43:30;99820.94;;;22.19;45.75
75403;BME280;63975;47.538;18.972;2022-10-30T03:46:32;99827.22;;;22.18;46.04
75403;BME280;63975;47.538;18.972;2022-10-30T03:49:48;99811.53;;;22.17;45.56
75403;BME280;63975;47.538;18.972;2022-10-30T03:52:55;99818.28;;;22.19;45.74
75403;BME280;63975;47.538;18.972;2022-10-30T03:56:00;99809.72;;;22.17;45.53
75403;BME280;63975;47.538;18.972;2022-10-30T03:59:12;99813.19;;;22.18;46.05
75403;BME280;63975;47.538;18.972;2022-10-30T04:02:16;99817.25;;;22.20;45.59
75403;BME280;63975;47.538;18.972;2022-10-30T04:05:20;99809.28;;;22.14;46.01
75403;BME280;63975;47.538;18.972;2022-10-30T04:08:26;99820.50;;;22.16;46.00
75403;BME280;63975;47.538;18.972;2022-10-30T04:11:28;99808.47;;;22.13;45.55
75403;BME280;63975;47.538;18.972;2022-10-30T04:14:31;99812.56;;;22.16;45.88
75403;BME280;63975;47.538;18.972;2022-10-30T04:17:34;99809.91;;;22.16;45.98
75403;BME280;63975;47.538;18.972;2022-10-30T04:20:39;99796.88;;;22.14;45.68
75403;BME280;63975;47.538;18.972;2022-10-30T04:23:41;99809.72;;;22.17;45.71
75403;BME280;63975;47.538;18.972;2022-10-30T04:26:43;99815.22;;;22.16;45.80
75403;BME280;63975;47.538;18.972;2022-10-30T04:29:46;99817.22;;;22.14;45.65
75403;BME280;63975;47.538;18.972;2022-10-30T04:32:50;99813.75;;;22.13;45.67
75403;BME280;63975;47.538;18.972;2022-10-30T04:35:53;99810.91;;;22.15;45.80
75403;BME280;63975;47.538;18.972;2022-10-30T04:38:56;99810.91;;;22.15;46.10
75403;BME280;63975;47.538;18.972;2022-10-30T04:42:00;99805.63;;;22.15;45.90
75403;BME280;63975;47.538;18.972;2022-10-30T04:45:07;99813.56;;;22.15;46.08
75403;BME280;63975;47.538;18.972;2022-10-30T04:48:17;99802.50;;;22.05;45.62
75403;BME280;63975;47.538;18.972;2022-10-30T04:51:22;99804.38;;;22.11;45.79
75403;BME280;63975;47.538;18.972;2022-10-30T04:54:25;99806.00;;;22.12;45.77
75403;BME280;63975;47.538;18.972;2022-10-30T04:57:29;99814.78;;;22.12;46.00
75403;BME280;63975;47.538;18.972;2022-10-30T05:00:35;99818.59;;;22.10;45.66
75403;BME280;63975;47.538;18.972;2022-10-30T05:03:44;99816.38;;;22.13;45.75
75403;BME280;63975;47.538;18.972;2022-10-30T05:06:51;99820.84;;;22.13;45.85
75403;BME280;63975;47.538;18.972;2022-10-30T05:09:53;99805.56;;;22.08;45.98
75403;BME280;63975;47.538;18.972;2022-10-30T05:12:57;99799.41;;;22.01;45.86
75403;BME280;63975;47.538;18.972;2022-10-30T05:16:01;99823.88;;;22.10;45.71
75403;BME280;63975;47.538;18.972;2022-10-30T05:19:03;99830.81;;;22.11;45.95
75403;BME280;63975;47.538;18.972;2022-10-30T05:22:07;99829.59;;;22.13;45.74
75403;BME280;63975;47.538;18.972;2022-10-30T05:25:11;99824.53;;;22.12;46.08
75403;BME280;63975;47.538;18.972;2022-10-30T05:28:13;99814.44;;;22.01;45.56
75403;BME280;63975;47.538;18.972;2022-10-30T05:31:23;99833.47;;;22.11;46.03
75403;BME280;63975;47.538;18.972;2022-10-30T05:34:48;99840.41;;;22.12;45.84
75403;BME280;63975;47.538;18.972;2022-10-30T05:37:54;99835.50;;;22.09;45.93
75403;BME280;63975;47.538;18.972;2022-10-30T05:40:57;99821.56;;;22.00;46.08
75403;BME280;63975;47.538;18.972;2022-10-30T05:43:59;99828.50;;;22.01;45.86
75403;BME280;63975;47.538;18.972;2022-10-30T05:47:02;99843.41;;;22.09;46.05
75403;BME280;63975;47.538;18.972;2022-10-30T05:50:08;99836.31;;;22.09;45.98
75403;BME280;63975;47.538;18.972;2022-10-30T05:53:10;99840.13;;;22.07;46.08
75403;BME280;63975;47.538;18.972;2022-10-30T05:56:13;99848.50;;;22.10;45.66
75403;BME280;63975;47.538;18.972;2022-10-30T05:59:17;99845.25;;;22.08;46.08
75403;BME280;63975;47.538;18.972;2022-10-30T06:02:20;99832.97;;;22.01;46.19
75403;BME280;63975;47.538;18.972;2022-10-30T06:05:23;99839.31;;;22.06;45.83
75403;BME280;63975;47.538;18.972;2022-10-30T06:08:25;99842.59;;;22.08;46.03
75403;BME280;63975;47.538;18.972;2022-10-30T06:11:30;99843.59;;;22.07;45.94
75403;BME280;63975;47.538;18.972;2022-10-30T06:14:34;99831.53;;;21.98;46.15
75403;BME280;63975;47.538;18.972;2022-10-30T06:17:36;99839.13;;;22.08;45.86
75403;BME280;63975;47.538;18.972;2022-10-30T06:21:11;99844.59;;;22.06;46.04
75403;BME280;63975;47.538;18.972;2022-10-30T06:24:38;99838.50;;;22.06;45.90
75403;BME280;63975;47.538;18.972;2022-10-30T06:27:59;99845.25;;;22.08;45.90
75403;BME280;63975;47.538;18.972;2022-10-30T06:31:04;99836.50;;;22.08;46.16
75403;BME280;63975;47.538;18.972;2022-10-30T06:34:08;99824.78;;;21.96;46.30
75403;BME280;63975;47.538;18.972;2022-10-30T06:37:13;99840.91;;;22.01;46.09
75403;BME280;63975;47.538;18.972;2022-10-30T06:40:16;99848.66;;;22.02;45.81
75403;BME280;63975;47.538;18.972;2022-10-30T06:43:21;99863.09;;;22.06;45.91
75403;BME280;63975;47.538;18.972;2022-10-30T06:46:30;99865.56;;;22.08;45.94
75403;BME280;63975;47.538;18.972;2022-10-30T06:49:35;99838.78;;;21.90;46.10
75403;BME280;63975;47.538;18.972;2022-10-30T06:52:37;99860.66;;;22.05;46.01
75403;BME280;63975;47.538;18.972;2022-10-30T06:55:40;99855.13;;;22.00;46.06
75403;BME280;63975;47.538;18.972;2022-10-30T06:58:56;99863.69;;;22.02;46.16
75403;BME280;63975;47.538;18.972;2022-10-30T07:02:09;99864.97;;;22.06;46.08
75403;BME280;63975;47.538;18.972;2022-10-30T07:05:18;99860.47;;;22.06;45.75
75403;BME280;63975;47.538;18.972;2022-10-30T07:08:21;99860.66;;;22.05;46.09
75403;BME280;63975;47.538;18.972;2022-10-30T07:11:23;99859.03;;;22.04;46.22
75403;BME280;63975;47.538;18.972;2022-10-30T07:14:55;99863.94;;;22.07;45.73
75403;BME280;63975;47.538;18.972;2022-10-30T07:18:09;99863.94;;;22.07;45.71
75403;BME280;63975;47.538;18.972;2022-10-30T07:21:11;99865.97;;;22.05;45.82
75403;BME280;63975;47.538;18.972;2022-10-30T07:24:14;99865.97;;;22.05;45.91
75403;BME280;63975;47.538;18.972;2022-10-30T07:27:46;99872.69;;;22.07;46.06
75403;BME280;63975;47.538;18.972;2022-10-30T07:31:10;99868.41;;;22.06;45.69
75403;BME280;63975;47.538;18.972;2022-10-30T07:34:31;99856.13;;;21.99;45.88
75403;BME280;63975;47.538;18.972;2022-10-30T07:38:07;99866.56;;;22.07;46.13
75403;BME280;63975;47.538;18.972;2022-10-30T07:41:20;99883.25;;;22.07;46.04
75403;BME280;63975;47.538;18.972;2022-10-30T07:44:29;99884.25;;;22.06;46.06
75403;BME280;63975;47.538;18.972;2022-10-30T07:47:52;99867.72;;;21.98;46.08
75403;BME280;63975;47.538;18.972;2022-10-30T07:51:33;99886.13;;;22.06;46.21
75403;BME280;63975;47.538;18.972;2022-10-30T07:54:36;99876.72;;;22.03;45.77
75403;BME280;63975;47.538;18.972;2022-10-30T07:58:01;99883.47;;;22.06;46.07
75403;BME280;63975;47.538;18.972;2022-10-30T08:01:22;99872.06;;;22.05;46.18
75403;BME280;63975;47.538;18.972;2022-10-30T08:04:25;99877.09;;;22.00;46.04
75403;BME280;63975;47.538;18.972;2022-10-30T08:07:34;99882.66;;;22.05;45.92
75403;BME280;63975;47.538;18.972;2022-10-30T08:10:37;99874.44;;;22.00;45.87
75403;BME280;63975;47.538;18.972;2022-10-30T08:13:39;99870.19;;;21.99;46.24
75403;BME280;63975;47.538;18.972;2022-10-30T08:16:41;99878.91;;;22.00;46.02
75403;BME280;63975;47.538;18.972;2022-10-30T08:19:43;99888.75;;;22.06;46.00
75403;BME280;63975;47.538;18.972;2022-10-30T08:22:54;99854.88;;;21.95;45.97
75403;BME280;63975;47.538;18.972;2022-10-30T08:25:59;99871.19;;;21.98;45.85
75403;BME280;63975;47.538;18.972;2022-10-30T08:29:02;99870.34;;;21.98;46.15
75403;BME280;63975;47.538;18.972;2022-10-30T08:32:05;99882.81;;;22.04;46.19
75403;BME280;63975;47.538;18.972;2022-10-30T08:35:27;99887.94;;;22.05;46.18
75403;BME280;63975;47.538;18.972;2022-10-30T08:38:32;99877.28;;;21.99;46.08
75403;BME280;63975;47.538;18.972;2022-10-30T08:41:58;99888.56;;;22.07;45.74
75403;BME280;63975;47.538;18.972;2022-10-30T08:45:06;99880.81;;;22.06;46.04
75403;BME280;63975;47.538;18.972;2022-10-30T08:48:34;99876.09;;;22.01;45.86
75403;BME280;63975;47.538;18.972;2022-10-30T08:51:37;99874.72;;;22.05;46.17
75403;BME280;63975;47.538;18.972;2022-10-30T08:54:41;99878.81;;;22.08;45.82
75403;BME280;63975;47.538;18.972;2022-10-30T08:57:44;99873.50;;;22.08;46.17
75403;BME280;63975;47.538;18.972;2022-10-30T09:00:46;99862.25;;;21.99;46.30
75403;BME280;63975;47.538;18.972;2022-10-30T09:03:48;99877.81;;;22.09;45.94
75403;BME280;63975;47.538;18.972;2022-10-30T09:07:11;99883.72;;;22.11;46.02
75403;BME280;63975;47.538;18.972;2022-10-30T09:10:32;99872.25;;;22.04;45.77
75403;BME280;63975;47.538;18.972;2022-10-30T09:13:35;99865.97;;;22.05;46.19
75403;BME280;63975;47.538;18.972;2022-10-30T09:16:39;99857.41;;;22.03;45.89
75403;BME280;63975;47.538;18.972;2022-10-30T09:19:42;99868.66;;;22.11;46.09
75403;BME280;63975;47.538;18.972;2022-10-30T09:22:49;99871.47;;;22.10;45.79
75403;BME280;63975;47.538;18.972;2022-10-30T09:25:56;99877.34;;;22.05;45.89
75403;BME280;63975;47.538;18.972;2022-10-30T09:29:18;99882.72;;;22.12;45.82
75403;BME280;63975;47.538;18.972;2022-10-30T09:32:59;99878.25;;;22.12;46.16
75403;BME280;63975;47.538;18.972;2022-10-30T09:36:24;99862.50;;;22.04;45.99
75403;BME280;63975;47.538;18.972;2022-10-30T09:39:26;99873.75;;;22.13;46.19
75403;BME280;63975;47.538;18.972;2022-10-30T09:43:03;99875.22;;;22.15;45.93
75403;BME280;63975;47.538;18.972;2022-10-30T09:46:14;99870.94;;;22.14;45.92
75403;BME280;63975;47.538;18.972;2022-10-30T09:53:06;99843.53;;;22.22;45.70
75403;BME280;63975;47.538;18.972;2022-10-30T09:56:34;99867.25;;;22.37;45.30
75403;BME280;63975;47.538;18.972;2022-10-30T10:00:01;99861.00;;;22.44;45.38
75403;BME280;63975;47.538;18.972;2022-10-30T10:03:12;99856.16;;;22.48;45.01
75403;BME280;63975;47.538;18.972;2022-10-30T10:06:43;99845.56;;;22.48;45.20
75403;BME280;63975;47.538;18.972;2022-10-30T10:10:12;99856.19;;;22.54;44.91
75403;BME280;63975;47.538;18.972;2022-10-30T10:13:25;99854.59;;;22.60;44.77
75403;BME280;63975;47.538;18.972;2022-10-30T10:16:30;99846.66;;;22.60;44.87
75403;BME280;63975;47.538;18.972;2022-10-30T10:19:57;99825.50;;;22.60;44.55
75403;BME280;63975;47.538;18.972;2022-10-30T10:23:16;99841.88;;;22.70;44.58
75403;BME280;63975;47.538;18.972;2022-10-30T10:30:07;99846.41;;;22.76;44.83
75403;BME280;63975;47.538;18.972;2022-10-30T10:36:41;99846.22;;;22.78;44.70
75403;BME280;63975;47.538;18.972;2022-10-30T10:50:36;99838.53;;;22.89;44.33
75403;BME280;63975;47.538;18.972;2022-10-30T10:53:55;99823.44;;;22.83;44.10
75403;BME280;63975;47.538;18.972;2022-10-30T10:57:03;99824.28;;;22.90;44.17
75403;BME280;63975;47.538;18.972;2022-10-30T11:00:07;99825.28;;;22.89;44.45
75403;BME280;63975;47.538;18.972;2022-10-30T11:03:20;99823.47;;;22.90;44.41
75403;BME280;63975;47.538;18.972;2022-10-30T11:06:29;99811.44;;;22.87;44.40
75403;BME280;63975;47.538;18.972;2022-10-30T11:09:33;99804.50;;;22.86;44.08
75403;BME280;63975;47.538;18.972;2022-10-30T11:12:35;99807.41;;;22.91;44.46
75403;BME280;63975;47.538;18.972;2022-10-30T11:15:47;99816.19;;;22.98;44.19
75403;BME280;63975;47.538;18.972;2022-10-30T11:19:01;99796.16;;;22.89;44.06
75403;BME280;63975;47.538;18.972;2022-10-30T11:22:17;99803.13;;;22.97;44.32
75403;BME280;63975;47.538;18.972;2022-10-30T11:25:24;99809.44;;;22.96;44.22
75403;BME280;63975;47.538;18.972;2022-10-30T11:28:40;99810.91;;;22.98;44.25
75403;BME280;63975;47.538;18.972;2022-10-30T11:31:45;99809.66;;;22.94;44.54
75403;BME280;63975;47.538;18.972;2022-10-30T11:38:18;99809.47;;;23.02;44.04
75403;BME280;63975;47.538;18.972;2022-10-30T11:41:21;99809.06;;;23.05;43.95
75403;BME280;63975;47.538;18.972;2022-10-30T11:44:28;99805.22;;;23.01;44.17
75403;BME280;63975;47.538;18.972;2022-10-30T11:47:35;99786.84;;;23.00;44.28
75403;BME280;63975;47.538;18.972;2022-10-30T11:50:44;99790.75;;;23.04;44.38
75403;BME280;63975;47.538;18.972;2022-10-30T11:53:49;99775.84;;;22.96;44.35
75403;BME280;63975;47.538;18.972;2022-10-30T11:56:51;99790.75;;;23.04;44.16
75403;BME280;63975;47.538;18.972;2022-10-30T11:59:55;99785.44;;;23.04;44.31
75403;BME280;63975;47.538;18.972;2022-10-30T12:03:33;99783.00;;;23.02;44.41
75403;BME280;63975;47.538;18.972;2022-10-30T12:06:36;99784.22;;;23.06;44.06
75403;BME280;63975;47.538;18.972;2022-10-30T12:09:46;99779.34;;;23.03;44.15
75403;BME280;63975;47.538;18.972;2022-10-30T12:12:49;99774.06;;;23.10;44.18
75403;BME280;63975;47.538;18.972;2022-10-30T12:16:14;99772.25;;;23.10;43.96
75403;BME280;63975;47.538;18.972;2022-10-30T12:19:19;99776.09;;;23.08;44.24
75403;BME280;63975;47.538;18.972;2022-10-30T12:22:24;99776.53;;;23.11;44.25
75403;BME280;63975;47.538;18.972;2022-10-30T12:25:30;99772.63;;;23.07;44.48
75403;BME280;63975;47.538;18.972;2022-10-30T12:28:33;99777.97;;;23.14;44.13
75403;BME280;63975;47.538;18.972;2022-10-30T12:31:57;99761.63;;;23.10;44.38
75403;BME280;63975;47.538;18.972;2022-10-30T12:35:08;99765.53;;;23.14;44.17
75403;BME280;63975;47.538;18.972;2022-10-30T12:41:44;99781.44;;;23.14;44.43
75403;BME280;63975;47.538;18.972;2022-10-30T12:44:59;99778.97;;;23.13;44.14
75403;BME280;63975;47.538;18.972;2022-10-30T13:01:34;99769.63;;;23.17;44.29
75403;BME280;63975;47.538;18.972;2022-10-30T13:04:41;99779.19;;;23.18;44.07
75403;BME280;63975;47.538;18.972;2022-10-30T13:14:44;99766.97;;;23.17;44.12
75403;BME280;63975;47.538;18.972;2022-10-30T13:17:48;99762.25;;;23.12;44.15
75403;BME280;63975;47.538;18.972;2022-10-30T13:28:22;99771.84;;;23.20;44.03
75403;BME280;63975;47.538;18.972;2022-10-30T13:34:59;99783.28;;;23.20;44.18
75403;BME280;63975;47.538;18.972;2022-10-30T13:38:31;99784.72;;;23.23;44.30
75403;BME280;63975;47.538;18.972;2022-10-30T13:45:09;99772.88;;;23.19;44.33
75403;BME280;63975;47.538;18.972;2022-10-30T13:52:13;99771.47;;;23.23;44.47
75403;BME280;63975;47.538;18.972;2022-10-30T13:55:23;99760.03;;;23.22;44.52
75403;BME280;63975;47.538;18.972;2022-10-30T13:58:47;99759.84;;;23.24;44.44
75403;BME280;63975;47.538;18.972;2022-10-30T14:08:51;99773.50;;;23.21;44.48
75403;BME280;63975;47.538;18.972;2022-10-30T14:15:45;99771.84;;;23.20;44.39
75403;BME280;63975;47.538;18.972;2022-10-30T14:18:59;99782.06;;;23.23;44.69
75403;BME280;63975;47.538;18.972;2022-10-30T14:22:22;99775.72;;;23.17;44.36
75403;BME280;63975;47.538;18.972;2022-10-30T14:25:24;99770.41;;;23.11;44.36
75403;BME280;63975;47.538;18.972;2022-10-30T14:28:27;99786.75;;;23.21;44.16
75403;BME280;63975;47.538;18.972;2022-10-30T14:31:34;99783.88;;;23.22;44.53
75403;BME280;63975;47.538;18.972;2022-10-30T14:34:55;99786.75;;;23.21;44.48
75403;BME280;63975;47.538;18.972;2022-10-30T14:38:15;99783.06;;;23.22;44.55
75403;BME280;63975;47.538;18.972;2022-10-30T14:51:53;99761.06;;;23.21;44.62
75403;BME280;63975;47.538;18.972;2022-10-30T14:58:24;99753.72;;;23.23;44.33
75403;BME280;63975;47.538;18.972;2022-10-30T15:11:54;99757.19;;;23.17;44.55
75403;BME280;63975;47.538;18.972;2022-10-30T15:15:04;99747.59;;;23.16;44.77
75403;BME280;63975;47.538;18.972;2022-10-30T15:18:16;99741.88;;;23.13;44.63
75403;BME280;63975;47.538;18.972;2022-10-30T15:21:21;99741.47;;;23.16;44.33
75403;BME280;63975;47.538;18.972;2022-10-30T15:24:27;99755.75;;;23.15;44.50
75403;BME280;63975;47.538;18.972;2022-10-30T15:27:34;99750.25;;;23.16;44.64
75403;BME280;63975;47.538;18.972;2022-10-30T15:30:57;99745.75;;;23.10;44.77
75403;BME280;63975;47.538;18.972;2022-10-30T15:34:00;99751.22;;;23.09;44.65
75403;BME280;63975;47.538;18.972;2022-10-30T15:37:12;99742.88;;;23.05;44.67
75403;BME280;63975;47.538;18.972;2022-10-30T15:40:18;99764.06;;;23.12;44.50
75403;BME280;63975;47.538;18.972;2022-10-30T15:43:25;99758.75;;;23.05;44.76
75403;BME280;63975;47.538;18.972;2022-10-30T15:46:29;99768.59;;;23.11;44.68
75403;BME280;63975;47.538;18.972;2022-10-30T15:49:34;99765.69;;;23.06;44.46
75403;BME280;63975;47.538;18.972;2022-10-30T15:52:39;99766.50;;;23.07;44.66
75403;BME280;63975;47.538;18.972;2022-10-30T15:55:43;99760.63;;;23.05;44.56
75403;BME280;63975;47.538;18.972;2022-10-30T15:58:55;99755.69;;;22.95;44.42
75403;BME280;63975;47.538;18.972;2022-10-30T16:01:58;99763.63;;;22.95;45.01
75403;BME280;63975;47.538;18.972;2022-10-30T16:05:00;99769.72;;;22.96;44.99
75403;BME280;63975;47.538;18.972;2022-10-30T16:08:11;99761.75;;;22.89;44.65
75403;BME280;63975;47.538;18.972;2022-10-30T16:11:15;99771.38;;;22.97;44.84
75403;BME280;63975;47.538;18.972;2022-10-30T16:14:22;99754.84;;;22.88;44.70
75403;BME280;63975;47.538;18.972;2022-10-30T16:17:25;99766.84;;;22.91;44.78
75403;BME280;63975;47.538;18.972;2022-10-30T16:20:28;99766.47;;;22.94;44.71
75403;BME280;63975;47.538;18.972;2022-10-30T16:23:39;99769.94;;;22.94;45.09
75403;BME280;63975;47.538;18.972;2022-10-30T16:26:43;99766.00;;;22.84;44.90
75403;BME280;63975;47.538;18.972;2022-10-30T16:29:52;99760.88;;;22.75;44.87
75403;BME280;63975;47.538;18.972;2022-10-30T16:32:54;99774.53;;;22.79;44.93
75403;BME280;63975;47.538;18.972;2022-10-30T16:35:58;99771.28;;;22.77;44.96
75403;BME280;63975;47.538;18.972;2022-10-30T16:39:02;99775.56;;;22.78;44.72
75403;BME280;63975;47.538;18.972;2022-10-30T16:42:04;99775.56;;;22.78;44.87
75403;BME280;63975;47.538;18.972;2022-10-30T16:48:19;99775.34;;;22.80;44.76
75403;BME280;63975;47.538;18.972;2022-10-30T16:51:25;99775.94;;;22.75;44.76
75403;BME280;63975;47.538;18.972;2022-10-30T16:54:34;99778.78;;;22.73;44.91
75403;BME280;63975;47.538;18.972;2022-10-30T16:57:42;99768.69;;;22.62;45.06
75403;BME280;63975;47.538;18.972;2022-10-30T17:00:51;99767.34;;;22.66;45.15
75403;BME280;63975;47.538;18.972;2022-10-30T17:03:54;99776.28;;;22.65;45.06
75403;BME280;63975;47.538;18.972;2022-10-30T17:07:18;99782.00;;;22.69;44.74
75403;BME280;63975;47.538;18.972;2022-10-30T17:10:34;99774.28;;;22.67;45.19
75403;BME280;63975;47.538;18.972;2022-10-30T17:13:55;99777.28;;;22.64;44.78
75403;BME280;63975;47.538;18.972;2022-10-30T17:16:58;99773.63;;;22.65;44.80
75403;BME280;63975;47.538;18.972;2022-10-30T17:23:26;99782.16;;;22.61;44.80
75403;BME280;63975;47.538;18.972;2022-10-30T17:26:28;99778.22;;;22.50;44.88
75403;BME280;63975;47.538;18.972;2022-10-30T17:32:43;99794.72;;;22.52;44.83
75403;BME280;63975;47.538;18.972;2022-10-30T17:35:45;99794.78;;;22.59;45.03
75403;BME280;63975;47.538;18.972;2022-10-30T17:38:48;99787.41;;;22.54;44.98
75403;BME280;63975;47.538;18.972;2022-10-30T17:41:51;99792.72;;;22.61;44.84
75403;BME280;63975;47.538;18.972;2022-10-30T17:44:56;99792.72;;;22.61;45.03
75403;BME280;63975;47.538;18.972;2022-10-30T17:47:59;99792.88;;;22.53;45.08
75403;BME280;63975;47.538;18.972;2022-10-30T17:51:02;99803.28;;;22.54;44.88
75403;BME280;63975;47.538;18.972;2022-10-30T17:54:09;99807.97;;;22.52;44.90
75403;BME280;63975;47.538;18.972;2022-10-30T17:57:15;99809.97;;;22.50;44.94
75403;BME280;63975;47.538;18.972;2022-10-30T18:00:17;99805.50;;;22.51;45.15
75403;BME280;63975;47.538;18.972;2022-10-30T18:03:20;99800.25;;;22.57;44.92
75403;BME280;63975;47.538;18.972;2022-10-30T18:06:24;99792.06;;;22.52;44.86
75403;BME280;63975;47.538;18.972;2022-10-30T18:09:27;99800.41;;;22.56;45.06
75403;BME280;63975;47.538;18.972;2022-10-30T18:12:29;99804.53;;;22.58;44.67
75403;BME280;63975;47.538;18.972;2022-10-30T18:15:37;99795.91;;;22.50;44.92
75403;BME280;63975;47.538;18.972;2022-10-30T18:18:42;99797.16;;;22.54;44.87
75403;BME280;63975;47.538;18.972;2022-10-30T18:21:45;99787.75;;;22.45;44.90
75403;BME280;63975;47.538;18.972;2022-10-30T18:24:49;99788.34;;;22.47;45.06
75403;BME280;63975;47.538;18.972;2022-10-30T18:27:51;99779.81;;;22.45;45.04
75403;BME280;63975;47.538;18.972;2022-10-30T18:30:55;99788.41;;;22.53;45.19
75403;BME280;63975;47.538;18.972;2022-10-30T18:33:59;99779.03;;;22.51;45.13
75403;BME280;63975;47.538;18.972;2022-10-30T18:37:01;99780.47;;;22.53;44.95